sensor_id;sensor_type;location;lat;lon;timestamp;temperature;humidity
46490;DHT22;32204;49.160;8.580;2023-10-09T00:01:45;15.00;99.90
46490;DHT22;32204;49.160;8.580;2023-10-09T00:04:12;15.00;99.90
46490;DHT22;32204;49.160;8.580;2023-10-09T00:06:39;15.10;99.90
46490;DHT22;32204;49.160;8.580;2023-10-09T00:09:07;15.10;75.30
46490;DHT22;32204;49.160;8.580;2023-10-09T00:11:48;15.10;1.00
46490;DHT22;32204;49.160;8.580;2023-10-09T00:14:14;15.10;1.00
46490;DHT22;32204;49.160;8.580;2023-10-09T00:16:44;14.90;1.00
46490;DHT22;32204;49.160;8.580;2023-10-09T00:19:14;14.70;99.90
46490;DHT22;32204;49.160;8.580;2023-10-09T00:21:45;14.60;1.00
46490;DHT22;32204;49.160;8.580;2023-10-09T00:24:11;14.60;1.00
46490;DHT22;32204;49.160;8.580;2023-10-09T00:26:45;14.70;1.00
46490;DHT22;32204;49.160;8.580;2023-10-09T00:29:15;14.80;99.90
46490;DHT22;32204;49.160;8.580;2023-10-09T00:31:54;14.90;99.90
46490;DHT22;32204;49.160;8.580;2023-10-09T00:34:42;14.90;89.50
46490;DHT22;32204;49.160;8.580;2023-10-09T00:37:08;14.90;43.20
46490;DHT22;32204;49.160;8.580;2023-10-09T00:39:45;14.90;2.80
46490;DHT22;32204;49.160;8.580;2023-10-09T00:42:12;14.90;1.00
46490;DHT22;32204;49.160;8.580;2023-10-09T00:44:40;14.90;14.40
46490;DHT22;32204;49.160;8.580;2023-10-09T00:47:11;14.90;1.00
46490;DHT22;32204;49.160;8.580;2023-10-09T00:52:31;14.50;99.90
46490;DHT22;32204;49.160;8.580;2023-10-09T00:55:03;14.60;99.90
46490;DHT22;32204;49.160;8.580;2023-10-09T00:57:34;14.60;99.90
46490;DHT22;32204;49.160;8.580;2023-10-09T01:00:03;14.60;99.90
46490;DHT22;32204;49.160;8.580;2023-10-09T01:02:37;14.70;99.90
46490;DHT22;32204;49.160;8.580;2023-10-09T01:05:07;14.70;99.90
46490;DHT22;32204;49.160;8.580;2023-10-09T01:07:47;14.70;93.00
46490;DHT22;32204;49.160;8.580;2023-10-09T01:10:13;14.60;99.90
46490;DHT22;32204;49.160;8.580;2023-10-09T01:12:42;14.50;99.90
46490;DHT22;32204;49.160;8.580;2023-10-09T01:15:10;14.30;99.90
46490;DHT22;32204;49.160;8.580;2023-10-09T01:17:56;14.30;1.00
46490;DHT22;32204;49.160;8.580;2023-10-09T01:20:24;14.40;99.90
46490;DHT22;32204;49.160;8.580;2023-10-09T01:22:55;14.50;99.90
46490;DHT22;32204;49.160;8.580;2023-10-09T01:25:21;14.50;99.90
46490;DHT22;32204;49.160;8.580;2023-10-09T01:27:47;14.60;99.90
46490;DHT22;32204;49.160;8.580;2023-10-09T01:30:12;14.70;99.90
46490;DHT22;32204;49.160;8.580;2023-10-09T01:32:41;14.70;35.90
46490;DHT22;32204;49.160;8.580;2023-10-09T01:35:10;14.80;1.00
46490;DHT22;32204;49.160;8.580;2023-10-09T01:37:45;14.90;99.90
46490;DHT22;32204;49.160;8.580;2023-10-09T01:40:15;15.00;99.90
46490;DHT22;32204;49.160;8.580;2023-10-09T01:43:02;15.10;99.90
46490;DHT22;32204;49.160;8.580;2023-10-09T01:45:29;15.20;1.00
46490;DHT22;32204;49.160;8.580;2023-10-09T01:47:55;15.00;1.00
46490;DHT22;32204;49.160;8.580;2023-10-09T01:50:21;15.00;1.00
46490;DHT22;32204;49.160;8.580;2023-10-09T01:52:50;14.90;1.00
46490;DHT22;32204;49.160;8.580;2023-10-09T01:55:19;14.90;16.60
46490;DHT22;32204;49.160;8.580;2023-10-09T01:57:59;15.00;1.00
46490;DHT22;32204;49.160;8.580;2023-10-09T02:00:34;15.00;1.00
46490;DHT22;32204;49.160;8.580;2023-10-09T02:03:07;15.10;48.30
46490;DHT22;32204;49.160;8.580;2023-10-09T02:05:38;15.10;30.20
46490;DHT22;32204;49.160;8.580;2023-10-09T02:08:04;15.20;99.90
46490;DHT22;32204;49.160;8.580;2023-10-09T02:10:31;15.30;99.90
46490;DHT22;32204;49.160;8.580;2023-10-09T02:13:05;15.40;34.20
46490;DHT22;32204;49.160;8.580;2023-10-09T02:15:39;15.40;1.00
46490;DHT22;32204;49.160;8.580;2023-10-09T02:18:11;15.50;1.00
46490;DHT22;32204;49.160;8.580;2023-10-09T02:20:53;15.70;1.00
46490;DHT22;32204;49.160;8.580;2023-10-09T02:23:25;15.70;99.90
46490;DHT22;32204;49.160;8.580;2023-10-09T02:25:58;15.70;99.90
46490;DHT22;32204;49.160;8.580;2023-10-09T02:28:26;15.70;99.90
46490;DHT22;32204;49.160;8.580;2023-10-09T02:30:58;15.70;99.90
46490;DHT22;32204;49.160;8.580;2023-10-09T02:33:26;15.70;99.90
46490;DHT22;32204;49.160;8.580;2023-10-09T02:35:56;15.70;99.90
46490;DHT22;32204;49.160;8.580;2023-10-09T02:38:25;15.70;99.90
46490;DHT22;32204;49.160;8.580;2023-10-09T02:40:51;15.70;99.90
46490;DHT22;32204;49.160;8.580;2023-10-09T02:43:34;15.70;99.90
46490;DHT22;32204;49.160;8.580;2023-10-09T02:46:13;15.70;99.90
46490;DHT22;32204;49.160;8.580;2023-10-09T02:48:47;15.70;99.90
46490;DHT22;32204;49.160;8.580;2023-10-09T02:51:19;15.60;99.90
46490;DHT22;32204;49.160;8.580;2023-10-09T02:54:01;15.70;99.90
46490;DHT22;32204;49.160;8.580;2023-10-09T02:56:50;15.70;1.00
46490;DHT22;32204;49.160;8.580;2023-10-09T02:59:31;15.70;99.90
46490;DHT22;32204;49.160;8.580;2023-10-09T03:01:57;15.80;99.90
46490;DHT22;32204;49.160;8.580;2023-10-09T03:04:26;15.80;99.90
46490;DHT22;32204;49.160;8.580;2023-10-09T03:07:00;15.80;99.90
46490;DHT22;32204;49.160;8.580;2023-10-09T03:09:26;15.70;99.90
46490;DHT22;32204;49.160;8.580;2023-10-09T03:11:54;15.70;99.90
46490;DHT22;32204;49.160;8.580;2023-10-09T03:14:21;15.80;99.90
46490;DHT22;32204;49.160;8.580;2023-10-09T03:16:47;15.80;99.90
46490;DHT22;32204;49.160;8.580;2023-10-09T03:19:15;15.90;99.90
46490;DHT22;32204;49.160;8.580;2023-10-09T03:21:42;15.90;99.90
46490;DHT22;32204;49.160;8.580;2023-10-09T03:24:07;15.90;99.90
46490;DHT22;32204;49.160;8.580;2023-10-09T03:26:34;15.90;99.90
46490;DHT22;32204;49.160;8.580;2023-10-09T03:28:59;15.90;99.90
46490;DHT22;32204;49.160;8.580;2023-10-09T03:31:34;15.80;99.90
46490;DHT22;32204;49.160;8.580;2023-10-09T03:34:02;15.70;99.90
46490;DHT22;32204;49.160;8.580;2023-10-09T03:36:28;15.70;99.90
46490;DHT22;32204;49.160;8.580;2023-10-09T03:38:59;15.70;99.90
46490;DHT22;32204;49.160;8.580;2023-10-09T03:41:26;15.60;99.90
46490;DHT22;32204;49.160;8.580;2023-10-09T03:43:54;15.60;99.90
46490;DHT22;32204;49.160;8.580;2023-10-09T03:46:21;15.70;99.90
46490;DHT22;32204;49.160;8.580;2023-10-09T03:48:48;15.60;99.90
46490;DHT22;32204;49.160;8.580;2023-10-09T03:51:14;15.60;99.90
46490;DHT22;32204;49.160;8.580;2023-10-09T03:53:51;15.60;99.90
46490;DHT22;32204;49.160;8.580;2023-10-09T03:56:18;15.60;99.90
46490;DHT22;32204;49.160;8.580;2023-10-09T03:58:48;15.50;99.90
46490;DHT22;32204;49.160;8.580;2023-10-09T04:01:19;15.40;1.00
46490;DHT22;32204;49.160;8.580;2023-10-09T04:03:53;15.40;1.00
46490;DHT22;32204;49.160;8.580;2023-10-09T04:06:24;15.30;15.00
46490;DHT22;32204;49.160;8.580;2023-10-09T04:09:00;15.30;4.70
46490;DHT22;32204;49.160;8.580;2023-10-09T04:11:39;15.40;1.00
46490;DHT22;32204;49.160;8.580;2023-10-09T04:14:08;15.40;1.00
46490;DHT22;32204;49.160;8.580;2023-10-09T04:16:37;15.30;1.00
46490;DHT22;32204;49.160;8.580;2023-10-09T04:19:16;15.30;1.00
46490;DHT22;32204;49.160;8.580;2023-10-09T04:21:50;15.30;1.00
46490;DHT22;32204;49.160;8.580;2023-10-09T04:24:21;15.30;1.00
46490;DHT22;32204;49.160;8.580;2023-10-09T04:26:47;15.20;1.00
46490;DHT22;32204;49.160;8.580;2023-10-09T04:29:13;15.20;1.00
46490;DHT22;32204;49.160;8.580;2023-10-09T04:31:47;15.10;1.00
46490;DHT22;32204;49.160;8.580;2023-10-09T04:34:20;15.00;1.00
46490;DHT22;32204;49.160;8.580;2023-10-09T04:36:55;15.10;77.70
46490;DHT22;32204;49.160;8.580;2023-10-09T04:39:42;15.10;20.30
46490;DHT22;32204;49.160;8.580;2023-10-09T04:42:26;15.10;1.00
46490;DHT22;32204;49.160;8.580;2023-10-09T04:45:02;15.10;1.00
46490;DHT22;32204;49.160;8.580;2023-10-09T04:47:46;15.10;79.10
46490;DHT22;32204;49.160;8.580;2023-10-09T04:50:24;15.00;24.20
46490;DHT22;32204;49.160;8.580;2023-10-09T04:52:56;15.00;82.30
46490;DHT22;32204;49.160;8.580;2023-10-09T04:55:21;15.10;99.50
46490;DHT22;32204;49.160;8.580;2023-10-09T04:57:51;15.10;70.20
46490;DHT22;32204;49.160;8.580;2023-10-09T05:00:27;15.10;80.20
46490;DHT22;32204;49.160;8.580;2023-10-09T05:02:59;15.10;94.80
46490;DHT22;32204;49.160;8.580;2023-10-09T05:05:30;15.10;78.30
46490;DHT22;32204;49.160;8.580;2023-10-09T05:08:09;15.10;99.90
46490;DHT22;32204;49.160;8.580;2023-10-09T05:10:57;15.10;99.90
46490;DHT22;32204;49.160;8.580;2023-10-09T05:16:15;15.20;99.90
46490;DHT22;32204;49.160;8.580;2023-10-09T05:18:44;15.20;99.90
46490;DHT22;32204;49.160;8.580;2023-10-09T05:21:13;15.10;99.90
46490;DHT22;32204;49.160;8.580;2023-10-09T05:24:10;15.10;99.90
46490;DHT22;32204;49.160;8.580;2023-10-09T05:26:39;15.10;99.90
46490;DHT22;32204;49.160;8.580;2023-10-09T05:29:15;15.00;99.90
46490;DHT22;32204;49.160;8.580;2023-10-09T05:31:48;15.00;99.90
46490;DHT22;32204;49.160;8.580;2023-10-09T05:34:25;15.00;99.90
46490;DHT22;32204;49.160;8.580;2023-10-09T05:37:03;15.10;99.90
46490;DHT22;32204;49.160;8.580;2023-10-09T05:39:47;15.00;99.90
46490;DHT22;32204;49.160;8.580;2023-10-09T05:42:29;15.10;99.90
46490;DHT22;32204;49.160;8.580;2023-10-09T05:45:09;15.10;99.90
46490;DHT22;32204;49.160;8.580;2023-10-09T05:47:44;15.10;99.90
46490;DHT22;32204;49.160;8.580;2023-10-09T05:50:26;15.20;99.90
46490;DHT22;32204;49.160;8.580;2023-10-09T05:52:53;15.20;73.90
46490;DHT22;32204;49.160;8.580;2023-10-09T05:55:20;15.20;99.90
46490;DHT22;32204;49.160;8.580;2023-10-09T05:58:05;15.30;99.90
46490;DHT22;32204;49.160;8.580;2023-10-09T06:00:54;15.30;82.20
46490;DHT22;32204;49.160;8.580;2023-10-09T06:03:32;15.30;99.90
46490;DHT22;32204;49.160;8.580;2023-10-09T06:06:36;15.40;55.80
46490;DHT22;32204;49.160;8.580;2023-10-09T06:09:13;15.40;99.80
46490;DHT22;32204;49.160;8.580;2023-10-09T06:11:44;15.40;94.60
46490;DHT22;32204;49.160;8.580;2023-10-09T06:14:20;15.40;99.90
46490;DHT22;32204;49.160;8.580;2023-10-09T06:17:11;15.40;99.90
46490;DHT22;32204;49.160;8.580;2023-10-09T06:19:40;15.40;99.90
46490;DHT22;32204;49.160;8.580;2023-10-09T06:22:09;15.40;99.90
46490;DHT22;32204;49.160;8.580;2023-10-09T06:24:38;15.30;99.90
46490;DHT22;32204;49.160;8.580;2023-10-09T06:27:20;15.30;99.90
46490;DHT22;32204;49.160;8.580;2023-10-09T06:29:55;15.40;99.90
46490;DHT22;32204;49.160;8.580;2023-10-09T06:32:41;15.50;99.90
46490;DHT22;32204;49.160;8.580;2023-10-09T06:35:25;15.50;99.90
46490;DHT22;32204;49.160;8.580;2023-10-09T06:37:58;15.50;99.90
46490;DHT22;32204;49.160;8.580;2023-10-09T06:43:05;15.60;89.90
46490;DHT22;32204;49.160;8.580;2023-10-09T06:45:53;15.60;1.00
46490;DHT22;32204;49.160;8.580;2023-10-09T06:48:38;15.70;1.00
46490;DHT22;32204;49.160;8.580;2023-10-09T06:51:11;15.80;1.00
46490;DHT22;32204;49.160;8.580;2023-10-09T06:53:55;15.80;1.00
46490;DHT22;32204;49.160;8.580;2023-10-09T06:56:22;15.90;1.00
46490;DHT22;32204;49.160;8.580;2023-10-09T06:58:58;15.90;1.00
46490;DHT22;32204;49.160;8.580;2023-10-09T07:01:27;15.90;1.00
46490;DHT22;32204;49.160;8.580;2023-10-09T07:03:56;15.90;1.00
46490;DHT22;32204;49.160;8.580;2023-10-09T07:06:40;16.00;1.00
46490;DHT22;32204;49.160;8.580;2023-10-09T07:09:05;16.00;1.00
46490;DHT22;32204;49.160;8.580;2023-10-09T07:11:35;16.00;1.00
46490;DHT22;32204;49.160;8.580;2023-10-09T07:14:14;16.00;99.90
46490;DHT22;32204;49.160;8.580;2023-10-09T07:17:04;16.10;99.90
46490;DHT22;32204;49.160;8.580;2023-10-09T07:19:53;16.10;99.90
46490;DHT22;32204;49.160;8.580;2023-10-09T07:22:18;16.10;99.90
46490;DHT22;32204;49.160;8.580;2023-10-09T07:24:51;16.20;99.90
46490;DHT22;32204;49.160;8.580;2023-10-09T07:27:32;16.20;99.90
46490;DHT22;32204;49.160;8.580;2023-10-09T07:30:15;16.30;99.90
46490;DHT22;32204;49.160;8.580;2023-10-09T07:33:01;16.30;99.90
46490;DHT22;32204;49.160;8.580;2023-10-09T07:35:37;16.40;99.90
46490;DHT22;32204;49.160;8.580;2023-10-09T07:38:16;16.50;99.90
46490;DHT22;32204;49.160;8.580;2023-10-09T07:40:46;16.60;99.90
46490;DHT22;32204;49.160;8.580;2023-10-09T07:43:26;16.60;44.80
46490;DHT22;32204;49.160;8.580;2023-10-09T07:45:54;16.70;10.10
46490;DHT22;32204;49.160;8.580;2023-10-09T07:48:26;16.70;1.00
46490;DHT22;32204;49.160;8.580;2023-10-09T07:50:52;16.80;1.00
46490;DHT22;32204;49.160;8.580;2023-10-09T07:53:23;16.80;1.00
46490;DHT22;32204;49.160;8.580;2023-10-09T07:55:55;16.90;1.00
46490;DHT22;32204;49.160;8.580;2023-10-09T07:58:25;17.00;1.00
46490;DHT22;32204;49.160;8.580;2023-10-09T08:00:57;17.00;99.90
46490;DHT22;32204;49.160;8.580;2023-10-09T08:03:36;17.10;99.90
46490;DHT22;32204;49.160;8.580;2023-10-09T08:06:02;17.10;99.90
46490;DHT22;32204;49.160;8.580;2023-10-09T08:08:46;17.20;99.90
46490;DHT22;32204;49.160;8.580;2023-10-09T08:11:43;17.30;99.90
46490;DHT22;32204;49.160;8.580;2023-10-09T08:14:13;17.40;99.90
46490;DHT22;32204;49.160;8.580;2023-10-09T08:16:49;17.40;99.90
46490;DHT22;32204;49.160;8.580;2023-10-09T08:19:14;17.50;99.90
46490;DHT22;32204;49.160;8.580;2023-10-09T08:21:58;17.50;99.90
46490;DHT22;32204;49.160;8.580;2023-10-09T08:25:02;17.60;99.90
46490;DHT22;32204;49.160;8.580;2023-10-09T08:27:29;17.70;99.90
46490;DHT22;32204;49.160;8.580;2023-10-09T08:30:03;17.70;99.90
46490;DHT22;32204;49.160;8.580;2023-10-09T08:32:48;17.80;93.90
46490;DHT22;32204;49.160;8.580;2023-10-09T08:35:37;17.90;65.70
46490;DHT22;32204;49.160;8.580;2023-10-09T08:38:13;18.00;38.60
46490;DHT22;32204;49.160;8.580;2023-10-09T08:40:43;18.10;22.00
46490;DHT22;32204;49.160;8.580;2023-10-09T08:43:16;18.10;9.00
46490;DHT22;32204;49.160;8.580;2023-10-09T08:46:03;18.30;1.00
46490;DHT22;32204;49.160;8.580;2023-10-09T08:48:30;18.40;1.00
46490;DHT22;32204;49.160;8.580;2023-10-09T08:50:56;18.50;1.00
46490;DHT22;32204;49.160;8.580;2023-10-09T08:53:23;18.60;1.00
46490;DHT22;32204;49.160;8.580;2023-10-09T08:55:50;18.70;1.00
46490;DHT22;32204;49.160;8.580;2023-10-09T08:58:17;18.80;1.00
46490;DHT22;32204;49.160;8.580;2023-10-09T09:00:58;18.90;1.00
46490;DHT22;32204;49.160;8.580;2023-10-09T09:03:26;19.10;1.00
46490;DHT22;32204;49.160;8.580;2023-10-09T09:05:59;19.10;1.00
46490;DHT22;32204;49.160;8.580;2023-10-09T09:08:31;19.20;1.00
46490;DHT22;32204;49.160;8.580;2023-10-09T09:11:01;19.30;1.00
46490;DHT22;32204;49.160;8.580;2023-10-09T09:16:28;19.50;1.00
46490;DHT22;32204;49.160;8.580;2023-10-09T09:19:00;19.60;1.00
46490;DHT22;32204;49.160;8.580;2023-10-09T09:21:29;19.70;1.00
46490;DHT22;32204;49.160;8.580;2023-10-09T09:23:59;19.70;1.00
46490;DHT22;32204;49.160;8.580;2023-10-09T09:26:34;19.80;1.00
46490;DHT22;32204;49.160;8.580;2023-10-09T09:29:05;19.90;1.00
46490;DHT22;32204;49.160;8.580;2023-10-09T09:31:34;19.90;1.00
46490;DHT22;32204;49.160;8.580;2023-10-09T09:34:08;20.00;1.00
46490;DHT22;32204;49.160;8.580;2023-10-09T09:36:58;20.10;1.00
46490;DHT22;32204;49.160;8.580;2023-10-09T09:39:27;20.30;99.90
46490;DHT22;32204;49.160;8.580;2023-10-09T09:41:58;20.40;99.90
46490;DHT22;32204;49.160;8.580;2023-10-09T09:44:33;20.50;99.90
46490;DHT22;32204;49.160;8.580;2023-10-09T09:47:09;20.50;99.90
46490;DHT22;32204;49.160;8.580;2023-10-09T09:49:41;20.60;99.90
46490;DHT22;32204;49.160;8.580;2023-10-09T09:52:08;20.70;99.90
46490;DHT22;32204;49.160;8.580;2023-10-09T09:54:38;20.70;99.90
46490;DHT22;32204;49.160;8.580;2023-10-09T09:57:04;20.60;99.90
46490;DHT22;32204;49.160;8.580;2023-10-09T09:59:40;20.60;99.90
46490;DHT22;32204;49.160;8.580;2023-10-09T10:02:07;20.60;99.90
46490;DHT22;32204;49.160;8.580;2023-10-09T10:04:38;20.60;99.90
46490;DHT22;32204;49.160;8.580;2023-10-09T10:07:06;20.50;99.90
46490;DHT22;32204;49.160;8.580;2023-10-09T10:09:39;20.60;99.90
46490;DHT22;32204;49.160;8.580;2023-10-09T10:12:08;20.60;99.90
46490;DHT22;32204;49.160;8.580;2023-10-09T10:14:56;20.60;99.90
46490;DHT22;32204;49.160;8.580;2023-10-09T10:20:30;20.70;99.90
46490;DHT22;32204;49.160;8.580;2023-10-09T10:23:19;20.80;99.90
46490;DHT22;32204;49.160;8.580;2023-10-09T10:25:46;20.80;99.90
46490;DHT22;32204;49.160;8.580;2023-10-09T10:31:05;21.10;99.90
46490;DHT22;32204;49.160;8.580;2023-10-09T10:36:24;21.50;99.90
46490;DHT22;32204;49.160;8.580;2023-10-09T10:39:02;21.60;99.90
46490;DHT22;32204;49.160;8.580;2023-10-09T10:41:35;21.60;99.90
46490;DHT22;32204;49.160;8.580;2023-10-09T10:44:04;21.70;99.90
46490;DHT22;32204;49.160;8.580;2023-10-09T10:46:49;21.60;99.90
46490;DHT22;32204;49.160;8.580;2023-10-09T10:49:18;21.50;99.90
46490;DHT22;32204;49.160;8.580;2023-10-09T10:51:49;21.40;99.90
46490;DHT22;32204;49.160;8.580;2023-10-09T10:54:25;21.40;99.90
46490;DHT22;32204;49.160;8.580;2023-10-09T10:57:02;21.40;99.90
46490;DHT22;32204;49.160;8.580;2023-10-09T10:59:40;21.30;99.90
46490;DHT22;32204;49.160;8.580;2023-10-09T11:02:11;21.20;99.90
46490;DHT22;32204;49.160;8.580;2023-10-09T11:04:37;21.30;99.90
46490;DHT22;32204;49.160;8.580;2023-10-09T11:07:09;21.30;99.90
46490;DHT22;32204;49.160;8.580;2023-10-09T11:09:48;21.40;99.90
46490;DHT22;32204;49.160;8.580;2023-10-09T11:12:51;21.40;99.90
46490;DHT22;32204;49.160;8.580;2023-10-09T11:15:32;21.40;99.90
46490;DHT22;32204;49.160;8.580;2023-10-09T11:18:21;21.40;99.90
46490;DHT22;32204;49.160;8.580;2023-10-09T11:20:51;21.50;99.90
46490;DHT22;32204;49.160;8.580;2023-10-09T11:23:30;21.50;99.90
46490;DHT22;32204;49.160;8.580;2023-10-09T11:25:59;21.60;99.90
46490;DHT22;32204;49.160;8.580;2023-10-09T11:28:44;21.50;99.90
46490;DHT22;32204;49.160;8.580;2023-10-09T11:31:22;21.70;99.90
46490;DHT22;32204;49.160;8.580;2023-10-09T11:33:50;21.70;99.90
46490;DHT22;32204;49.160;8.580;2023-10-09T11:36:20;21.70;99.90
46490;DHT22;32204;49.160;8.580;2023-10-09T11:38:56;21.80;99.90
46490;DHT22;32204;49.160;8.580;2023-10-09T11:41:42;22.00;99.90
46490;DHT22;32204;49.160;8.580;2023-10-09T11:44:08;22.20;99.90
46490;DHT22;32204;49.160;8.580;2023-10-09T11:47:00;22.40;99.90
46490;DHT22;32204;49.160;8.580;2023-10-09T11:49:51;22.60;99.90
46490;DHT22;32204;49.160;8.580;2023-10-09T11:52:26;22.80;99.90
46490;DHT22;32204;49.160;8.580;2023-10-09T11:55:02;23.00;99.90
46490;DHT22;32204;49.160;8.580;2023-10-09T11:57:28;23.20;99.90
46490;DHT22;32204;49.160;8.580;2023-10-09T11:59:58;23.40;99.90
46490;DHT22;32204;49.160;8.580;2023-10-09T12:02:25;23.50;99.90
46490;DHT22;32204;49.160;8.580;2023-10-09T12:04:51;23.40;99.90
46490;DHT22;32204;49.160;8.580;2023-10-09T12:07:17;23.30;99.90
46490;DHT22;32204;49.160;8.580;2023-10-09T12:09:46;23.30;99.90
46490;DHT22;32204;49.160;8.580;2023-10-09T12:12:13;23.30;99.90
46490;DHT22;32204;49.160;8.580;2023-10-09T12:14:38;23.20;99.90
46490;DHT22;32204;49.160;8.580;2023-10-09T12:17:05;23.20;99.90
46490;DHT22;32204;49.160;8.580;2023-10-09T12:19:35;23.20;99.90
46490;DHT22;32204;49.160;8.580;2023-10-09T12:22:02;23.10;99.90
46490;DHT22;32204;49.160;8.580;2023-10-09T12:24:30;23.00;99.90
46490;DHT22;32204;49.160;8.580;2023-10-09T12:26:56;23.00;99.90
46490;DHT22;32204;49.160;8.580;2023-10-09T12:29:22;23.00;99.90
46490;DHT22;32204;49.160;8.580;2023-10-09T12:31:49;23.10;99.90
46490;DHT22;32204;49.160;8.580;2023-10-09T12:34:26;23.20;99.90
46490;DHT22;32204;49.160;8.580;2023-10-09T12:36:55;23.30;99.90
46490;DHT22;32204;49.160;8.580;2023-10-09T12:39:21;23.50;99.90
46490;DHT22;32204;49.160;8.580;2023-10-09T12:41:48;23.60;99.90
46490;DHT22;32204;49.160;8.580;2023-10-09T12:44:14;23.70;99.90
46490;DHT22;32204;49.160;8.580;2023-10-09T12:46:44;23.70;99.90
46490;DHT22;32204;49.160;8.580;2023-10-09T12:49:20;23.80;99.90
46490;DHT22;32204;49.160;8.580;2023-10-09T12:51:53;23.80;99.90
46490;DHT22;32204;49.160;8.580;2023-10-09T12:54:19;23.80;99.90
46490;DHT22;32204;49.160;8.580;2023-10-09T12:56:56;23.80;99.90
46490;DHT22;32204;49.160;8.580;2023-10-09T12:59:23;24.00;99.90
46490;DHT22;32204;49.160;8.580;2023-10-09T13:01:49;24.20;99.90
46490;DHT22;32204;49.160;8.580;2023-10-09T13:04:18;24.30;99.90
46490;DHT22;32204;49.160;8.580;2023-10-09T13:06:48;24.30;98.40
46490;DHT22;32204;49.160;8.580;2023-10-09T13:09:17;24.40;87.10
46490;DHT22;32204;49.160;8.580;2023-10-09T13:12:08;24.40;81.20
46490;DHT22;32204;49.160;8.580;2023-10-09T13:14:34;24.40;73.70
46490;DHT22;32204;49.160;8.580;2023-10-09T13:17:01;24.30;57.90
46490;DHT22;32204;49.160;8.580;2023-10-09T13:19:34;24.40;54.80
46490;DHT22;32204;49.160;8.580;2023-10-09T13:21:59;24.60;50.70
46490;DHT22;32204;49.160;8.580;2023-10-09T13:24:28;24.60;49.10
46490;DHT22;32204;49.160;8.580;2023-10-09T13:26:55;24.60;40.10
46490;DHT22;32204;49.160;8.580;2023-10-09T13:29:24;24.50;32.90
46490;DHT22;32204;49.160;8.580;2023-10-09T13:31:50;24.50;26.70
46490;DHT22;32204;49.160;8.580;2023-10-09T13:34:22;24.50;21.30
46490;DHT22;32204;49.160;8.580;2023-10-09T13:36:51;24.50;19.10
46490;DHT22;32204;49.160;8.580;2023-10-09T13:39:21;24.50;17.20
46490;DHT22;32204;49.160;8.580;2023-10-09T13:44:31;24.40;12.30
46490;DHT22;32204;49.160;8.580;2023-10-09T13:46:59;24.30;11.90
46490;DHT22;32204;49.160;8.580;2023-10-09T13:49:26;24.30;12.20
46490;DHT22;32204;49.160;8.580;2023-10-09T13:51:56;24.30;18.80
46490;DHT22;32204;49.160;8.580;2023-10-09T13:54:22;24.30;9.70
46490;DHT22;32204;49.160;8.580;2023-10-09T13:57:05;24.30;8.50
46490;DHT22;32204;49.160;8.580;2023-10-09T13:59:36;24.40;19.50
46490;DHT22;32204;49.160;8.580;2023-10-09T14:02:02;24.40;10.20
46490;DHT22;32204;49.160;8.580;2023-10-09T14:04:34;24.40;10.00
46490;DHT22;32204;49.160;8.580;2023-10-09T14:07:00;24.40;7.50
46490;DHT22;32204;49.160;8.580;2023-10-09T14:09:27;24.40;7.20
46490;DHT22;32204;49.160;8.580;2023-10-09T14:11:57;24.40;6.80
46490;DHT22;32204;49.160;8.580;2023-10-09T14:14:38;24.40;5.10
46490;DHT22;32204;49.160;8.580;2023-10-09T14:17:09;24.40;6.00
46490;DHT22;32204;49.160;8.580;2023-10-09T14:19:42;24.30;5.00
46490;DHT22;32204;49.160;8.580;2023-10-09T14:22:18;24.30;5.20
46490;DHT22;32204;49.160;8.580;2023-10-09T14:24:45;24.30;4.30
46490;DHT22;32204;49.160;8.580;2023-10-09T14:27:15;24.40;5.10
46490;DHT22;32204;49.160;8.580;2023-10-09T14:29:45;24.50;5.20
46490;DHT22;32204;49.160;8.580;2023-10-09T14:32:11;24.50;4.10
46490;DHT22;32204;49.160;8.580;2023-10-09T14:34:40;24.60;3.70
46490;DHT22;32204;49.160;8.580;2023-10-09T14:37:18;24.60;3.50
46490;DHT22;32204;49.160;8.580;2023-10-09T14:39:45;24.50;4.30
46490;DHT22;32204;49.160;8.580;2023-10-09T14:42:17;24.40;3.80
46490;DHT22;32204;49.160;8.580;2023-10-09T14:44:43;24.40;4.90
46490;DHT22;32204;49.160;8.580;2023-10-09T14:47:13;24.40;5.90
46490;DHT22;32204;49.160;8.580;2023-10-09T14:49:47;24.40;5.80
46490;DHT22;32204;49.160;8.580;2023-10-09T14:52:13;24.40;6.30
46490;DHT22;32204;49.160;8.580;2023-10-09T14:54:43;24.50;8.20
46490;DHT22;32204;49.160;8.580;2023-10-09T14:57:10;24.50;7.90
46490;DHT22;32204;49.160;8.580;2023-10-09T14:59:37;24.40;9.40
46490;DHT22;32204;49.160;8.580;2023-10-09T15:02:03;24.40;18.60
46490;DHT22;32204;49.160;8.580;2023-10-09T15:04:31;24.30;10.40
46490;DHT22;32204;49.160;8.580;2023-10-09T15:06:57;24.30;13.40
46490;DHT22;32204;49.160;8.580;2023-10-09T15:09:22;24.30;13.60
46490;DHT22;32204;49.160;8.580;2023-10-09T15:11:49;24.30;15.10
46490;DHT22;32204;49.160;8.580;2023-10-09T15:14:15;24.20;17.30
46490;DHT22;32204;49.160;8.580;2023-10-09T15:16:41;24.20;17.60
46490;DHT22;32204;49.160;8.580;2023-10-09T15:19:08;24.10;19.70
46490;DHT22;32204;49.160;8.580;2023-10-09T15:21:36;24.10;20.10
46490;DHT22;32204;49.160;8.580;2023-10-09T15:24:09;24.10;22.90
46490;DHT22;32204;49.160;8.580;2023-10-09T15:26:35;24.10;23.30
46490;DHT22;32204;49.160;8.580;2023-10-09T15:29:01;24.10;24.70
46490;DHT22;32204;49.160;8.580;2023-10-09T15:31:32;24.10;26.90
46490;DHT22;32204;49.160;8.580;2023-10-09T15:33:58;24.10;27.70
46490;DHT22;32204;49.160;8.580;2023-10-09T15:36:24;24.10;30.70
46490;DHT22;32204;49.160;8.580;2023-10-09T15:38:54;24.10;32.90
46490;DHT22;32204;49.160;8.580;2023-10-09T15:41:27;24.10;39.00
46490;DHT22;32204;49.160;8.580;2023-10-09T15:43:56;24.00;55.20
46490;DHT22;32204;49.160;8.580;2023-10-09T15:46:22;24.00;66.20
46490;DHT22;32204;49.160;8.580;2023-10-09T15:48:48;23.90;71.40
46490;DHT22;32204;49.160;8.580;2023-10-09T15:51:16;23.80;87.00
46490;DHT22;32204;49.160;8.580;2023-10-09T15:53:43;23.70;96.20
46490;DHT22;32204;49.160;8.580;2023-10-09T15:56:10;23.60;99.90
46490;DHT22;32204;49.160;8.580;2023-10-09T15:58:41;23.50;99.90
46490;DHT22;32204;49.160;8.580;2023-10-09T16:01:13;23.50;99.90
46490;DHT22;32204;49.160;8.580;2023-10-09T16:03:43;23.50;99.90
46490;DHT22;32204;49.160;8.580;2023-10-09T16:06:11;23.40;99.90
46490;DHT22;32204;49.160;8.580;2023-10-09T16:08:40;23.30;99.90
46490;DHT22;32204;49.160;8.580;2023-10-09T16:11:22;23.20;99.90
46490;DHT22;32204;49.160;8.580;2023-10-09T16:13:52;22.90;99.90
46490;DHT22;32204;49.160;8.580;2023-10-09T16:16:29;22.80;99.90
46490;DHT22;32204;49.160;8.580;2023-10-09T16:18:56;22.60;99.90
46490;DHT22;32204;49.160;8.580;2023-10-09T16:21:26;22.50;99.90
46490;DHT22;32204;49.160;8.580;2023-10-09T16:23:52;22.20;99.90
46490;DHT22;32204;49.160;8.580;2023-10-09T16:26:19;22.20;99.90
46490;DHT22;32204;49.160;8.580;2023-10-09T16:28:49;22.20;99.90
46490;DHT22;32204;49.160;8.580;2023-10-09T16:31:16;22.10;99.90